Time;durP1;ratioP1;P1;durP2;ratioP2;P2;SDS_P1;SDS_P2;PMS_P1;PMS_P2;Temp;Humidity;BMP_temperature;BMP_pressure;BME280_temperature;BME280_humidity;BME280_pressure;Samples;Min_cycle;Max_cycle;Signal;HPM_P1;HPM_P2
2021/05/28 00:00:00;;;;;;;9.90;6.13;;;14.80;99.90;;;;;;5112661;27;20222;-62
2021/05/28 00:02:26;;;;;;;7.38;6.65;;;14.80;99.90;;;;;;5112744;28;20278;-62
2021/05/28 00:04:52;;;;;;;6.25;4.95;;;14.80;99.90;;;;;;5101573;27;20741;-62
2021/05/28 00:07:19;;;;;;;7.90;6.78;;;14.80;99.90;;;;;;5106937;27;20215;-62
2021/05/28 00:09:46;;;;;;;5.88;5.45;;;14.80;99.90;;;;;;5106672;27;20225;-63
2021/05/28 00:12:12;;;;;;;4.63;4.25;;;14.80;99.90;;;;;;5110238;27;20214;-62
2021/05/28 00:14:38;;;;;;;5.93;5.45;;;14.80;99.90;;;;;;5112401;27;20799;-62
2021/05/28 00:17:05;;;;;;;8.75;7.88;;;14.80;99.90;;;;;;5109871;28;20563;-63
2021/05/28 00:19:31;;;;;;;7.03;6.18;;;14.80;99.90;;;;;;5111735;27;20690;-64
2021/05/28 00:21:57;;;;;;;5.50;5.00;;;14.80;99.90;;;;;;5111059;27;20226;-64
2021/05/28 00:24:24;;;;;;;4.07;3.70;;;14.80;99.90;;;;;;5111397;28;20218;-63
2021/05/28 00:26:51;;;;;;;6.18;4.30;;;14.80;99.90;;;;;;5106777;28;20242;-64
2021/05/28 00:29:17;;;;;;;5.95;5.45;;;14.80;99.90;;;;;;5112960;28;20222;-64
2021/05/28 00:31:44;;;;;;;7.40;6.80;;;14.80;99.90;;;;;;5113073;28;20225;-64
2021/05/28 00:34:10;;;;;;;7.18;4.88;;;14.80;99.90;;;;;;5112613;28;20226;-62
2021/05/28 00:36:36;;;;;;;4.60;4.20;;;14.80;99.90;;;;;;5112973;27;20222;-62
2021/05/28 00:39:03;;;;;;;6.32;4.55;;;14.80;99.90;;;;;;5112139;27;20229;-62
2021/05/28 00:41:30;;;;;;;6.78;5.60;;;14.80;99.90;;;;;;5112849;28;20215;-63
2021/05/28 00:43:57;;;;;;;4.80;4.30;;;14.80;99.90;;;;;;5112571;28;20230;-62
2021/05/28 00:46:26;;;;;;;4.95;4.47;;;14.80;99.90;;;;;;5112999;28;20624;-63
2021/05/28 00:48:53;;;;;;;4.22;3.63;;;14.80;99.90;;;;;;5109984;27;20315;-61
2021/05/28 00:51:20;;;;;;;5.47;4.95;;;14.80;99.90;;;;;;5112751;28;20210;-62
2021/05/28 00:53:46;;;;;;;5.07;4.68;;;14.80;99.90;;;;;;5112103;28;20804;-62
2021/05/28 00:56:14;;;;;;;5.97;5.40;;;14.80;99.90;;;;;;5111220;28;20241;-63
2021/05/28 00:58:41;;;;;;;5.35;4.85;;;14.80;99.90;;;;;;5111462;27;20218;-63
2021/05/28 01:01:08;;;;;;;5.78;5.28;;;14.80;99.90;;;;;;5111043;27;20218;-63
2021/05/28 01:03:35;;;;;;;5.93;5.38;;;14.80;99.90;;;;;;5110335;28;20241;-63
2021/05/28 01:06:02;;;;;;;7.03;6.32;;;14.80;99.90;;;;;;5110978;28;20242;-62
2021/05/28 01:08:30;;;;;;;7.50;6.45;;;14.80;99.90;;;;;;5112240;27;20226;-63
2021/05/28 01:10:56;;;;;;;4.70;4.30;;;14.80;99.90;;;;;;5111708;27;20221;-62
2021/05/28 01:13:23;;;;;;;5.43;4.93;;;14.80;99.90;;;;;;5112796;28;20524;-62
2021/05/28 01:15:49;;;;;;;6.15;5.65;;;14.70;99.90;;;;;;5112556;28;20274;-61
2021/05/28 01:18:16;;;;;;;12.70;6.90;;;14.70;99.90;;;;;;5111978;27;20244;-61
2021/05/28 01:20:42;;;;;;;5.82;5.10;;;14.70;99.90;;;;;;5112763;28;20619;-60
2021/05/28 01:23:10;;;;;;;5.43;4.45;;;14.70;99.90;;;;;;5112110;28;20223;-61
2021/05/28 01:25:36;;;;;;;9.57;6.88;;;14.70;99.90;;;;;;5112386;28;20258;-61
2021/05/28 01:28:03;;;;;;;6.43;5.15;;;14.60;99.90;;;;;;5112108;27;20231;-61
2021/05/28 01:30:30;;;;;;;7.55;6.68;;;14.70;99.90;;;;;;5112317;28;20241;-60
2021/05/28 01:32:56;;;;;;;6.13;4.95;;;14.60;99.90;;;;;;5111566;28;20242;-61
2021/05/28 01:35:23;;;;;;;5.00;4.60;;;14.60;99.90;;;;;;5112359;28;20227;-61
2021/05/28 01:37:49;;;;;;;6.57;5.70;;;14.60;99.90;;;;;;5112376;28;20223;-61
2021/05/28 01:40:19;;;;;;;6.20;5.70;;;14.60;99.90;;;;;;5112015;28;20232;-61
2021/05/28 01:42:45;;;;;;;6.28;5.72;;;14.60;99.90;;;;;;5104059;28;20225;-61
2021/05/28 01:45:14;;;;;;;15.52;10.35;;;14.60;99.90;;;;;;5111889;28;20232;-61
2021/05/28 01:47:40;;;;;;;5.40;5.00;;;14.60;99.90;;;;;;5112107;27;20215;-61
2021/05/28 01:50:10;;;;;;;5.10;4.45;;;14.60;99.90;;;;;;5105598;27;20313;-61
2021/05/28 01:52:36;;;;;;;7.80;7.00;;;14.60;99.90;;;;;;5108314;28;20574;-61
2021/05/28 01:55:04;;;;;;;10.52;8.40;;;14.50;99.90;;;;;;5112381;27;20599;-61
2021/05/28 01:57:31;;;;;;;6.82;6.10;;;14.50;99.90;;;;;;5115781;27;20237;-61
2021/05/28 01:59:58;;;;;;;6.53;5.82;;;14.50;99.90;;;;;;5115446;27;20233;-61
2021/05/28 02:02:25;;;;;;;6.97;6.20;;;14.50;99.90;;;;;;5115413;27;20305;-61
2021/05/28 02:04:51;;;;;;;5.47;4.95;;;14.50;99.90;;;;;;5103948;27;20248;-61
2021/05/28 02:07:17;;;;;;;9.60;5.03;;;14.50;99.90;;;;;;5112819;27;20588;-61
2021/05/28 02:09:44;;;;;;;6.97;5.88;;;14.40;99.90;;;;;;5112815;27;20745;-61
2021/05/28 02:12:10;;;;;;;7.10;6.40;;;14.40;99.90;;;;;;5112309;27;20247;-61
2021/05/28 02:14:37;;;;;;;7.40;6.70;;;14.40;99.90;;;;;;5113910;28;20237;-61
2021/05/28 02:17:04;;;;;;;6.03;5.00;;;14.40;99.90;;;;;;5113478;27;20245;-61
2021/05/28 02:19:30;;;;;;;6.43;5.78;;;14.40;99.90;;;;;;5114712;27;20227;-62
2021/05/28 02:21:56;;;;;;;4.50;4.20;;;14.40;99.90;;;;;;5115527;27;20233;-61
2021/05/28 02:24:23;;;;;;;4.00;3.70;;;14.40;99.90;;;;;;5115192;28;20219;-62
2021/05/28 02:26:50;;;;;;;4.38;4.07;;;14.40;99.90;;;;;;5115380;28;20218;-61
2021/05/28 02:29:17;;;;;;;4.32;3.88;;;14.40;99.90;;;;;;5115126;28;20307;-61
2021/05/28 02:31:45;;;;;;;4.25;3.90;;;14.40;99.90;;;;;;5115228;28;20219;-61
2021/05/28 02:34:11;;;;;;;6.35;5.75;;;14.40;99.90;;;;;;5114788;27;20290;-62
2021/05/28 02:36:38;;;;;;;6.85;4.90;;;14.40;99.90;;;;;;5115294;27;20248;-62
2021/05/28 02:39:05;;;;;;;4.90;4.50;;;14.40;99.90;;;;;;5114842;28;20746;-62
2021/05/28 02:41:32;;;;;;;5.75;5.25;;;14.40;99.90;;;;;;5115296;28;20272;-61
2021/05/28 02:43:58;;;;;;;4.95;4.43;;;14.30;99.90;;;;;;5115556;27;20565;-62
2021/05/28 02:46:24;;;;;;;4.10;3.78;;;14.30;99.90;;;;;;5114621;27;20617;-62
2021/05/28 02:48:52;;;;;;;5.90;3.70;;;14.30;99.90;;;;;;5113063;27;20218;-62
2021/05/28 02:51:20;;;;;;;6.65;4.97;;;14.30;99.90;;;;;;5114604;28;20692;-62
2021/05/28 02:53:46;;;;;;;4.45;3.75;;;14.30;99.90;;;;;;5115146;28;20233;-62
2021/05/28 02:56:13;;;;;;;4.15;3.75;;;14.30;99.90;;;;;;5114631;27;20237;-62
2021/05/28 02:58:39;;;;;;;4.75;4.35;;;14.30;99.90;;;;;;5114908;27;20249;-60
2021/05/28 03:01:06;;;;;;;5.00;3.67;;;14.30;99.90;;;;;;5114531;27;20218;-61
2021/05/28 03:03:32;;;;;;;4.18;3.78;;;14.30;99.90;;;;;;5114709;27;20223;-62
2021/05/28 03:05:59;;;;;;;3.72;3.28;;;14.20;99.90;;;;;;5113512;28;20545;-62
2021/05/28 03:08:26;;;;;;;3.95;3.47;;;14.30;99.90;;;;;;5114182;27;20218;-62
2021/05/28 03:10:53;;;;;;;3.60;3.30;;;14.20;99.90;;;;;;5114442;27;20751;-62
2021/05/28 03:13:20;;;;;;;6.93;2.95;;;14.20;99.90;;;;;;5114166;27;20747;-62
2021/05/28 03:15:46;;;;;;;3.42;3.17;;;14.10;99.90;;;;;;5114512;27;20630;-60
2021/05/28 03:18:16;;;;;;;3.00;2.80;;;14.20;99.90;;;;;;5114218;28;20222;-62
2021/05/28 03:20:46;;;;;;;3.15;2.60;;;14.20;99.90;;;;;;5114483;28;20226;-62
2021/05/28 03:23:14;;;;;;;3.00;2.42;;;14.10;99.90;;;;;;5114114;28;20618;-62
2021/05/28 03:25:40;;;;;;;2.65;2.45;;;14.10;99.90;;;;;;5114181;27;20219;-60
2021/05/28 03:28:06;;;;;;;4.07;3.35;;;14.10;99.90;;;;;;5113996;28;20258;-60
2021/05/28 03:30:33;;;;;;;2.40;2.20;;;14.10;99.90;;;;;;5114141;28;20570;-61
2021/05/28 03:32:59;;;;;;;4.22;2.70;;;14.00;99.90;;;;;;5114358;28;20222;-61
2021/05/28 03:35:26;;;;;;;3.78;3.00;;;14.00;99.90;;;;;;5113604;27;20222;-61
2021/05/28 03:37:52;;;;;;;6.43;2.83;;;14.00;99.90;;;;;;5114318;28;20234;-61
2021/05/28 03:40:19;;;;;;;2.67;2.42;;;14.00;99.90;;;;;;5113449;27;20233;-61
2021/05/28 03:42:46;;;;;;;2.45;2.05;;;13.90;99.90;;;;;;5114138;28;20555;-61
2021/05/28 03:45:13;;;;;;;3.45;3.15;;;13.90;99.90;;;;;;5113648;27;20237;-61
2021/05/28 03:47:39;;;;;;;5.38;3.03;;;13.90;99.90;;;;;;5113731;27;20695;-61
2021/05/28 03:50:07;;;;;;;6.78;3.13;;;13.80;99.90;;;;;;5111567;28;20234;-60
2021/05/28 03:52:34;;;;;;;4.47;2.70;;;13.80;99.90;;;;;;5114124;28;20219;-61
2021/05/28 03:55:00;;;;;;;4.68;3.28;;;13.80;99.90;;;;;;5113708;27;20233;-60
2021/05/28 03:57:27;;;;;;;2.42;2.22;;;13.80;99.90;;;;;;5113151;27;20226;-61
2021/05/28 03:59:53;;;;;;;2.63;2.42;;;13.80;99.90;;;;;;5113503;27;20218;-61
2021/05/28 04:02:20;;;;;;;2.85;2.60;;;13.80;99.90;;;;;;5113018;27;20227;-61
2021/05/28 04:04:46;;;;;;;3.00;2.80;;;13.80;99.90;;;;;;5113434;28;20218;-62
2021/05/28 04:07:12;;;;;;;5.05;3.10;;;13.80;99.90;;;;;;5111877;27;20223;-61
2021/05/28 04:09:39;;;;;;;3.58;2.88;;;13.80;99.90;;;;;;5109774;27;20234;-61
2021/05/28 04:12:05;;;;;;;5.05;3.50;;;13.80;99.90;;;;;;5110725;27;20219;-61
2021/05/28 04:14:32;;;;;;;3.55;3.25;;;13.80;99.90;;;;;;5111373;27;20287;-61
2021/05/28 04:16:59;;;;;;;2.58;2.38;;;13.80;99.90;;;;;;5110323;27;20223;-61
2021/05/28 04:19:25;;;;;;;3.15;2.95;;;13.80;99.90;;;;;;5110841;27;20232;-61
2021/05/28 04:21:51;;;;;;;2.67;2.47;;;13.80;99.90;;;;;;5111651;27;20226;-61
2021/05/28 04:24:18;;;;;;;2.97;2.72;;;13.80;99.90;;;;;;5110806;27;20710;-61
2021/05/28 04:26:44;;;;;;;3.08;2.17;;;13.90;99.90;;;;;;5110971;27;20223;-60
2021/05/28 04:29:11;;;;;;;2.20;2.10;;;13.80;99.90;;;;;;5109815;27;20222;-60
2021/05/28 04:31:38;;;;;;;2.75;2.55;;;13.80;99.90;;;;;;5111094;27;20279;-61
2021/05/28 04:34:04;;;;;;;3.38;3.08;;;13.90;99.90;;;;;;5111228;27;20230;-61
2021/05/28 04:36:30;;;;;;;3.00;2.80;;;13.90;99.90;;;;;;5111003;27;20218;-61
2021/05/28 04:38:57;;;;;;;3.50;2.58;;;13.90;99.90;;;;;;5111172;27;20239;-61
2021/05/28 04:41:23;;;;;;;3.05;2.78;;;14.00;99.90;;;;;;5110780;27;20555;-61
2021/05/28 04:43:49;;;;;;;3.10;2.80;;;14.00;99.90;;;;;;5113330;27;20211;-61
2021/05/28 04:46:16;;;;;;;5.47;3.20;;;14.00;99.90;;;;;;5112978;27;20223;-61
2021/05/28 04:48:43;;;;;;;3.00;2.72;;;14.00;99.90;;;;;;5113113;27;20223;-61
2021/05/28 04:51:09;;;;;;;3.28;2.97;;;14.00;99.90;;;;;;5104520;27;20222;-62
2021/05/28 04:53:35;;;;;;;3.00;2.80;;;14.00;99.90;;;;;;5100371;28;20533;-61
2021/05/28 04:56:02;;;;;;;2.83;2.63;;;14.00;99.90;;;;;;5113162;28;20226;-61
2021/05/28 04:58:28;;;;;;;2.65;2.45;;;14.00;99.90;;;;;;5112573;27;20231;-61
2021/05/28 05:00:55;;;;;;;2.80;2.60;;;14.00;99.90;;;;;;5113201;28;20683;-61
2021/05/28 05:03:22;;;;;;;3.95;2.85;;;14.00;99.90;;;;;;5112523;27;20305;-61
2021/05/28 05:05:49;;;;;;;2.88;2.55;;;14.00;99.90;;;;;;5113426;27;20214;-61
2021/05/28 05:08:15;;;;;;;2.75;2.55;;;14.00;99.90;;;;;;5112811;27;20227;-61
2021/05/28 05:10:42;;;;;;;3.25;2.97;;;14.00;99.90;;;;;;5113077;27;20230;-61
2021/05/28 05:13:12;;;;;;;3.60;3.30;;;14.00;99.90;;;;;;5113085;27;20748;-61
2021/05/28 05:15:38;;;;;;;4.22;2.58;;;14.00;99.90;;;;;;5112680;27;20214;-61
2021/05/28 05:18:07;;;;;;;4.88;2.80;;;14.00;99.90;;;;;;5112651;27;20314;-61
2021/05/28 05:20:33;;;;;;;3.45;3.15;;;13.90;99.90;;;;;;5112530;27;20234;-61
2021/05/28 05:23:01;;;;;;;4.03;3.08;;;14.00;99.90;;;;;;5112781;27;20877;-61
2021/05/28 05:25:27;;;;;;;2.78;2.58;;;14.00;99.90;;;;;;5112267;27;20226;-61
2021/05/28 05:27:53;;;;;;;3.50;3.20;;;14.00;99.90;;;;;;5112890;27;20233;-61
2021/05/28 05:30:21;;;;;;;3.47;3.10;;;14.00;99.90;;;;;;5115453;27;20222;-61
2021/05/28 05:32:50;;;;;;;6.72;3.35;;;14.00;99.90;;;;;;5116804;27;20229;-61
2021/05/28 05:35:20;;;;;;;3.30;3.10;;;14.00;99.90;;;;;;5116387;27;20225;-61
2021/05/28 05:37:49;;;;;;;3.92;3.55;;;14.00;99.90;;;;;;5116635;27;20287;-61
2021/05/28 05:40:17;;;;;;;4.05;3.65;;;14.00;99.90;;;;;;5116132;27;20227;-60
2021/05/28 05:42:43;;;;;;;3.75;3.50;;;14.00;99.90;;;;;;5116883;27;20219;-61
2021/05/28 05:45:11;;;;;;;3.10;2.80;;;14.00;99.90;;;;;;5116557;27;20222;-61
2021/05/28 05:47:38;;;;;;;4.40;4.00;;;14.00;99.90;;;;;;5116156;27;20234;-61
2021/05/28 05:50:05;;;;;;;3.70;3.40;;;14.10;99.90;;;;;;5116460;27;20238;-61
2021/05/28 05:52:31;;;;;;;4.20;3.80;;;14.10;99.90;;;;;;5115956;27;20564;-61
2021/05/28 05:54:58;;;;;;;6.20;3.58;;;14.10;99.90;;;;;;5116505;27;20818;-61
2021/05/28 05:57:25;;;;;;;4.15;3.85;;;14.10;99.90;;;;;;5115923;27;20227;-60
2021/05/28 05:59:51;;;;;;;4.80;4.03;;;14.20;99.90;;;;;;5116239;27;20218;-61
2021/05/28 06:02:18;;;;;;;4.40;4.10;;;14.20;99.90;;;;;;5115793;27;20233;-60
2021/05/28 06:04:44;;;;;;;4.20;3.90;;;14.20;99.90;;;;;;5116121;27;20233;-62
2021/05/28 06:07:11;;;;;;;3.40;3.10;;;14.30;99.90;;;;;;5116047;27;20231;-61
2021/05/28 06:09:37;;;;;;;4.03;3.25;;;14.30;99.90;;;;;;5114980;27;20226;-61
2021/05/28 06:12:04;;;;;;;6.10;5.47;;;14.30;99.90;;;;;;5116109;27;20545;-61
2021/05/28 06:14:31;;;;;;;7.72;5.88;;;14.30;99.90;;;;;;5115551;27;20222;-61
2021/05/28 06:16:57;;;;;;;6.10;5.50;;;14.30;99.90;;;;;;5115983;27;20230;-61
2021/05/28 06:19:24;;;;;;;6.45;5.80;;;14.30;99.90;;;;;;5115537;27;20226;-61
2021/05/28 06:21:51;;;;;;;6.30;5.70;;;14.30;99.90;;;;;;5116024;27;20215;-61
2021/05/28 06:24:17;;;;;;;5.65;4.72;;;14.30;99.90;;;;;;5115941;27;20226;-61
2021/05/28 06:26:43;;;;;;;6.10;5.28;;;14.40;99.90;;;;;;5115282;28;20218;-61
2021/05/28 06:29:10;;;;;;;4.10;3.80;;;14.30;99.90;;;;;;5115858;28;20223;-61
2021/05/28 06:31:38;;;;;;;4.68;4.18;;;14.30;99.90;;;;;;5115265;28;20226;-62
2021/05/28 06:34:04;;;;;;;4.80;3.50;;;14.30;99.90;;;;;;5115613;28;20244;-61
2021/05/28 06:36:32;;;;;;;4.10;3.80;;;14.40;99.90;;;;;;5115287;28;20675;-62
2021/05/28 06:38:58;;;;;;;5.32;4.43;;;14.40;99.90;;;;;;5115511;28;20230;-61
2021/05/28 06:41:27;;;;;;;3.33;3.10;;;14.40;99.90;;;;;;5114642;28;20218;-60
2021/05/28 06:43:54;;;;;;;5.43;3.90;;;14.40;99.90;;;;;;5115609;28;20673;-62
2021/05/28 06:46:20;;;;;;;2.95;2.75;;;14.40;99.90;;;;;;5115531;28;20571;-62
2021/05/28 06:48:47;;;;;;;3.83;3.53;;;14.40;99.90;;;;;;5115023;28;20950;-60
2021/05/28 06:51:15;;;;;;;5.57;4.25;;;14.40;99.90;;;;;;5115137;27;20231;-61
2021/05/28 06:53:42;;;;;;;3.65;3.15;;;14.40;99.90;;;;;;5114787;27;20233;-61
2021/05/28 06:56:08;;;;;;;6.35;5.40;;;14.50;99.90;;;;;;5115047;27;20223;-61
2021/05/28 06:58:35;;;;;;;6.80;6.20;;;14.50;99.90;;;;;;5114819;27;20226;-61
2021/05/28 07:01:01;;;;;;;5.82;4.35;;;14.50;99.90;;;;;;5115161;27;20249;-61
2021/05/28 07:03:27;;;;;;;4.88;4.47;;;14.50;99.90;;;;;;5114396;27;20229;-61
2021/05/28 07:05:54;;;;;;;4.20;3.90;;;14.60;99.90;;;;;;5115212;27;20233;-61
2021/05/28 07:08:21;;;;;;;6.03;4.30;;;14.60;99.90;;;;;;5114800;27;20691;-62
2021/05/28 07:10:47;;;;;;;5.00;4.38;;;14.60;99.90;;;;;;5114627;27;20219;-61
2021/05/28 07:13:13;;;;;;;3.40;3.20;;;14.60;99.90;;;;;;5114965;27;20263;-61
2021/05/28 07:15:43;;;;;;;4.20;3.83;;;14.60;99.90;;;;;;5114515;27;20635;-61
2021/05/28 07:18:10;;;;;;;4.05;3.70;;;14.60;99.90;;;;;;5114510;27;20226;-61
2021/05/28 07:20:36;;;;;;;8.00;4.10;;;14.60;99.90;;;;;;5114327;27;20577;-61
2021/05/28 07:23:04;;;;;;;6.07;4.72;;;14.70;99.90;;;;;;5114635;27;20242;-61
2021/05/28 07:25:30;;;;;;;7.15;5.78;;;14.70;99.90;;;;;;5114123;27;20223;-61
2021/05/28 07:27:58;;;;;;;7.85;7.05;;;14.80;99.90;;;;;;5114478;27;20271;-62
2021/05/28 07:30:24;;;;;;;6.13;5.60;;;14.80;99.90;;;;;;5114287;27;20237;-61
2021/05/28 07:32:50;;;;;;;6.85;5.70;;;14.80;99.90;;;;;;5114337;27;21008;-62
2021/05/28 07:35:17;;;;;;;5.15;4.70;;;14.90;99.90;;;;;;5114488;27;20234;-62
2021/05/28 07:37:43;;;;;;;8.20;5.15;;;14.90;99.90;;;;;;5113758;27;20283;-61
2021/05/28 07:40:11;;;;;;;5.70;5.10;;;15.10;99.90;;;;;;5114492;27;20223;-61
2021/05/28 07:42:38;;;;;;;4.47;4.07;;;15.20;99.90;;;;;;5113737;27;20227;-61
2021/05/28 07:45:06;;;;;;;6.65;6.03;;;15.40;99.90;;;;;;5114399;27;20225;-61
2021/05/28 07:47:32;;;;;;;7.88;4.75;;;15.50;99.90;;;;;;5113726;27;20231;-62
2021/05/28 07:50:00;;;;;;;4.17;3.90;;;15.50;99.90;;;;;;5114167;27;20229;-61
2021/05/28 07:52:27;;;;;;;5.97;4.33;;;15.60;99.90;;;;;;5113464;27;20461;-61
2021/05/28 07:54:53;;;;;;;5.23;4.10;;;15.60;99.90;;;;;;5113925;27;20453;-61
2021/05/28 07:57:20;;;;;;;3.73;3.43;;;15.70;99.90;;;;;;5113775;27;20461;-61
2021/05/28 07:59:46;;;;;;;3.70;3.37;;;15.70;99.90;;;;;;5113906;27;20775;-61
2021/05/28 08:02:13;;;;;;;5.43;4.80;;;15.70;99.90;;;;;;5113829;27;20465;-61
2021/05/28 08:04:39;;;;;;;6.17;3.80;;;15.80;99.90;;;;;;5112973;27;20468;-61
2021/05/28 08:07:06;;;;;;;3.47;3.17;;;15.80;99.90;;;;;;5114002;27;20472;-61
2021/05/28 08:09:32;;;;;;;3.83;3.30;;;15.90;99.90;;;;;;5113396;28;20461;-62
2021/05/28 08:11:58;;;;;;;3.93;3.53;;;16.00;99.90;;;;;;5113811;27;20520;-63
2021/05/28 08:14:26;;;;;;;2.70;2.50;;;16.10;99.90;;;;;;5113628;28;21017;-62
2021/05/28 08:16:52;;;;;;;3.37;3.07;;;16.20;99.90;;;;;;5113033;28;20298;-61
2021/05/28 08:19:18;;;;;;;7.47;3.00;;;16.30;99.90;;;;;;5113712;27;20464;-61
2021/05/28 08:21:45;;;;;;;4.83;2.73;;;16.40;99.90;;;;;;5113304;28;20460;-61
2021/05/28 08:24:11;;;;;;;4.00;3.00;;;16.50;99.70;;;;;;5113517;28;20465;-62
2021/05/28 08:26:38;;;;;;;3.73;2.60;;;16.60;99.60;;;;;;5113230;28;20976;-61
2021/05/28 08:29:05;;;;;;;4.67;2.60;;;16.60;99.30;;;;;;5113356;28;20465;-61
2021/05/28 08:31:33;;;;;;;5.10;2.80;;;16.60;99.10;;;;;;5112882;28;20507;-61
2021/05/28 08:33:59;;;;;;;2.47;2.17;;;16.60;99.00;;;;;;5113540;28;20477;-61
2021/05/28 08:36:26;;;;;;;3.40;2.60;;;16.70;99.00;;;;;;5113453;28;20465;-61
2021/05/28 08:38:52;;;;;;;5.00;4.60;;;16.70;99.00;;;;;;5113047;28;20468;-61
2021/05/28 08:41:19;;;;;;;5.87;5.20;;;16.70;99.20;;;;;;5113300;27;20457;-62
2021/05/28 08:43:46;;;;;;;4.60;4.20;;;16.80;99.10;;;;;;5113021;27;20464;-62
2021/05/28 08:46:13;;;;;;;4.40;4.00;;;16.80;98.80;;;;;;5113101;27;20464;-62
2021/05/28 08:48:40;;;;;;;3.27;3.07;;;16.90;98.30;;;;;;5112904;27;20475;-62
2021/05/28 08:51:07;;;;;;;2.90;2.70;;;17.00;98.20;;;;;;5113143;27;20492;-61
2021/05/28 08:53:33;;;;;;;3.00;2.53;;;17.10;98.50;;;;;;5110199;27;20481;-62
2021/05/28 08:56:00;;;;;;;4.50;4.10;;;17.20;98.10;;;;;;5105838;27;20471;-62
2021/05/28 08:58:28;;;;;;;4.50;3.03;;;17.20;97.80;;;;;;5104487;27;20452;-62
2021/05/28 09:00:55;;;;;;;5.60;2.90;;;17.20;97.90;;;;;;5111699;27;20478;-62
2021/05/28 09:03:24;;;;;;;3.40;3.10;;;17.20;97.50;;;;;;5113264;27;20828;-62
2021/05/28 09:05:53;;;;;;;3.70;2.70;;;17.30;97.60;;;;;;5114325;27;20466;-62
2021/05/28 09:08:27;;;;;;;3.10;2.80;;;17.30;97.50;;;;;;5114402;27;20473;-62
2021/05/28 09:11:02;;;;;;;3.17;2.97;;;17.30;97.10;;;;;;5108791;27;20471;-62
2021/05/28 09:13:28;;;;;;;2.70;2.50;;;17.30;97.10;;;;;;5116957;27;20466;-62
2021/05/28 09:16:07;;;;;;;2.20;2.00;;;17.30;96.90;;;;;;5122170;27;20468;-61
2021/05/28 09:18:42;;;;;;;5.13;3.90;;;17.30;96.70;;;;;;5116995;27;20937;-61
2021/05/28 09:21:10;;;;;;;3.83;3.53;;;17.30;96.10;;;;;;5113891;27;20520;-61
2021/05/28 09:23:36;;;;;;;3.83;3.47;;;17.40;96.10;;;;;;5113629;27;20470;-62
2021/05/28 09:26:05;;;;;;;2.03;1.83;;;17.50;95.50;;;;;;5107010;28;20478;-62
2021/05/28 09:28:38;;;;;;;2.30;1.43;;;17.60;94.00;;;;;;5112333;27;20481;-61
2021/05/28 09:31:08;;;;;;;3.40;1.20;;;17.60;91.30;;;;;;5105626;27;20461;-61
2021/05/28 09:33:36;;;;;;;1.63;1.20;;;17.60;90.10;;;;;;5112632;27;20920;-61
2021/05/28 09:36:08;;;;;;;2.80;1.30;;;17.50;88.00;;;;;;5116390;27;20524;-61
2021/05/28 09:38:36;;;;;;;1.73;1.17;;;17.50;88.40;;;;;;5115896;27;20814;-61
2021/05/28 09:41:03;;;;;;;1.37;1.27;;;17.50;87.80;;;;;;5111742;27;20980;-61
2021/05/28 09:43:29;;;;;;;1.10;1.00;;;17.50;88.60;;;;;;5107477;27;20479;-62
2021/05/28 09:45:56;;;;;;;2.97;1.53;;;17.50;90.00;;;;;;5108789;27;20490;-63
2021/05/28 09:48:26;;;;;;;4.57;2.50;;;17.40;90.40;;;;;;5108433;27;21013;-60
2021/05/28 09:50:55;;;;;;;1.80;1.70;;;17.40;90.70;;;;;;5115876;27;20543;-61
2021/05/28 09:53:32;;;;;;;1.27;1.17;;;17.30;90.80;;;;;;5115459;27;20521;-61
2021/05/28 09:56:20;;;;;;;7.07;4.23;;;17.20;91.10;;;;;;5112003;27;20468;-60
2021/05/28 09:59:01;;;;;;;2.07;1.87;;;17.20;91.30;;;;;;5110399;27;20460;-61
2021/05/28 10:01:29;;;;;;;1.83;1.67;;;17.10;91.70;;;;;;5115673;27;20461;-61
2021/05/28 10:04:03;;;;;;;1.50;1.40;;;17.10;92.40;;;;;;5115210;27;20853;-61
2021/05/28 10:06:31;;;;;;;1.17;1.07;;;17.00;92.90;;;;;;5096940;27;20567;-61
2021/05/28 10:08:59;;;;;;;2.43;1.43;;;17.00;93.10;;;;;;5112311;27;20472;-61
2021/05/28 10:11:27;;;;;;;3.30;1.13;;;16.90;93.50;;;;;;5113106;27;20961;-62
2021/05/28 10:13:54;;;;;;;1.47;1.30;;;16.90;93.90;;;;;;5115653;27;20524;-62
2021/05/28 10:16:22;;;;;;;1.17;1.07;;;17.00;94.70;;;;;;5110701;27;20498;-62
2021/05/28 10:18:49;;;;;;;1.33;1.23;;;17.00;95.50;;;;;;5107606;27;20457;-63
2021/05/28 10:21:16;;;;;;;1.53;1.43;;;16.90;95.60;;;;;;5111151;27;20560;-62
2021/05/28 10:23:44;;;;;;;1.70;1.57;;;16.90;96.10;;;;;;5115326;27;20460;-62
2021/05/28 10:26:11;;;;;;;2.80;1.60;;;16.80;96.50;;;;;;5115929;27;20464;-62
2021/05/28 10:28:42;;;;;;;1.90;1.70;;;16.80;97.20;;;;;;5115019;27;20472;-62
2021/05/28 10:31:10;;;;;;;2.20;1.07;;;16.70;97.10;;;;;;5114506;27;20479;-62
2021/05/28 10:33:42;;;;;;;2.73;1.80;;;16.60;97.10;;;;;;5103679;27;20984;-62
2021/05/28 10:36:09;;;;;;;1.87;1.57;;;16.60;98.00;;;;;;5101474;27;20513;-62
2021/05/28 10:38:48;;;;;;;4.33;2.50;;;16.50;97.90;;;;;;5102027;27;20468;-62
2021/05/28 10:41:35;;;;;;;1.77;1.67;;;16.40;98.40;;;;;;5114167;27;21787;-62
2021/05/28 10:44:08;;;;;;;2.07;1.77;;;16.40;98.70;;;;;;5104471;28;20883;-62
2021/05/28 10:46:35;;;;;;;1.73;1.63;;;16.30;99.00;;;;;;5111752;28;21245;-60
2021/05/28 10:49:13;;;;;;;2.47;1.90;;;16.20;99.20;;;;;;5114538;27;20476;-61
2021/05/28 10:51:59;;;;;;;4.00;1.60;;;16.20;99.30;;;;;;5111400;27;20463;-61
2021/05/28 10:54:28;;;;;;;2.50;1.40;;;16.10;99.00;;;;;;5094132;28;20539;-61
2021/05/28 10:56:54;;;;;;;2.70;2.30;;;16.10;99.20;;;;;;5113176;27;20456;-61
2021/05/28 10:59:22;;;;;;;1.97;1.80;;;16.10;99.10;;;;;;5114327;27;20464;-61
2021/05/28 11:01:55;;;;;;;2.50;2.00;;;16.00;99.10;;;;;;5113947;27;20464;-61
2021/05/28 11:04:24;;;;;;;2.10;1.90;;;15.90;98.40;;;;;;5113252;27;21016;-61
2021/05/28 11:07:15;;;;;;;3.43;2.20;;;15.90;99.10;;;;;;5114619;27;21028;-61
2021/05/28 11:09:43;;;;;;;2.17;1.80;;;15.80;99.20;;;;;;5111532;27;20455;-61
2021/05/28 11:12:10;;;;;;;1.97;1.77;;;15.80;98.70;;;;;;5113914;27;20465;-61
2021/05/28 11:14:40;;;;;;;2.07;1.97;;;15.70;98.60;;;;;;5114245;27;20471;-61
2021/05/28 11:17:15;;;;;;;1.97;1.80;;;15.70;98.90;;;;;;5112118;27;20476;-62
2021/05/28 11:19:46;;;;;;;2.17;2.07;;;15.70;99.40;;;;;;5109492;27;20444;-61
2021/05/28 11:22:14;;;;;;;2.00;1.80;;;15.70;99.60;;;;;;5113169;27;20466;-62
2021/05/28 11:24:43;;;;;;;1.90;1.80;;;15.70;99.60;;;;;;5113085;27;21010;-61
2021/05/28 11:27:13;;;;;;;4.50;3.23;;;15.70;99.60;;;;;;5112838;27;20466;-61
2021/05/28 11:29:40;;;;;;;2.40;2.20;;;15.80;99.60;;;;;;5100444;27;20464;-61
2021/05/28 11:32:31;;;;;;;2.40;2.20;;;15.80;99.70;;;;;;5114350;27;20462;-61
2021/05/28 11:35:14;;;;;;;3.80;2.53;;;15.80;99.80;;;;;;5114025;27;20532;-61
2021/05/28 11:37:43;;;;;;;2.73;2.53;;;15.90;99.90;;;;;;5094081;28;20472;-60
2021/05/28 11:40:14;;;;;;;1.90;1.80;;;15.90;99.90;;;;;;5112619;27;20455;-61
2021/05/28 11:42:42;;;;;;;2.40;1.97;;;15.90;99.90;;;;;;5113194;27;20496;-61
2021/05/28 11:45:11;;;;;;;5.60;2.27;;;15.90;99.90;;;;;;5112817;27;20460;-61
2021/05/28 11:47:38;;;;;;;2.17;1.43;;;15.90;99.80;;;;;;5113164;27;20465;-61
2021/05/28 11:50:07;;;;;;;2.50;2.30;;;16.00;99.30;;;;;;5113308;27;20580;-61
2021/05/28 11:52:34;;;;;;;2.17;1.97;;;16.00;99.30;;;;;;5112559;27;20460;-61
2021/05/28 11:55:05;;;;;;;1.90;1.80;;;16.10;98.80;;;;;;5110606;27;20472;-61
2021/05/28 11:57:32;;;;;;;2.27;1.80;;;16.20;99.30;;;;;;5111871;27;20469;-61
2021/05/28 11:59:59;;;;;;;5.17;1.40;;;16.30;99.30;;;;;;5113603;27;20464;-61
2021/05/28 12:02:37;;;;;;;1.70;1.47;;;16.40;98.60;;;;;;5114011;27;20504;-61
2021/05/28 12:05:04;;;;;;;1.20;1.10;;;16.50;98.10;;;;;;5112268;27;20468;-62
2021/05/28 12:07:31;;;;;;;2.03;1.40;;;16.70;96.60;;;;;;5111995;27;20462;-61
2021/05/28 12:10:03;;;;;;;1.50;1.33;;;16.80;96.80;;;;;;5111623;27;20546;-61
2021/05/28 12:12:52;;;;;;;1.40;1.30;;;16.90;96.70;;;;;;5112348;27;20559;-61
2021/05/28 12:15:20;;;;;;;2.73;1.80;;;17.10;96.40;;;;;;5112577;27;20952;-61
2021/05/28 12:17:47;;;;;;;3.60;1.37;;;17.10;96.00;;;;;;5111764;27;20475;-61
2021/05/28 12:20:16;;;;;;;2.90;1.37;;;17.10;95.60;;;;;;5112811;27;20478;-61
2021/05/28 12:23:02;;;;;;;2.47;1.27;;;17.10;95.10;;;;;;5113344;27;20487;-61
2021/05/28 12:25:29;;;;;;;1.90;1.00;;;17.00;93.40;;;;;;5113246;27;20456;-61
2021/05/28 12:28:07;;;;;;;1.20;1.10;;;17.00;93.60;;;;;;5113425;27;20465;-62
2021/05/28 12:30:34;;;;;;;2.70;2.50;;;16.90;94.00;;;;;;5112957;27;20983;-61
2021/05/28 12:33:01;;;;;;;4.23;1.70;;;16.70;94.90;;;;;;5113649;27;20816;-62
2021/05/28 12:35:28;;;;;;;1.77;1.30;;;16.70;95.90;;;;;;5113125;27;20543;-61
2021/05/28 12:38:12;;;;;;;1.60;1.50;;;16.60;96.40;;;;;;5112820;27;20962;-62
2021/05/28 12:40:43;;;;;;;2.33;2.13;;;16.40;96.80;;;;;;5112855;27;20540;-62
2021/05/28 12:43:10;;;;;;;2.37;1.70;;;16.30;97.00;;;;;;5113381;27;20522;-61
2021/05/28 12:45:40;;;;;;;2.23;1.80;;;16.20;97.10;;;;;;5112745;27;20536;-61
2021/05/28 12:48:10;;;;;;;1.63;1.53;;;16.10;97.60;;;;;;5113151;27;20592;-62